Time,TemperatureF,DewpointF,PressureIn,WindDirection,WindDirectionDegrees,WindSpeedMPH,WindSpeedGustMPH,Humidity,HourlyPrecipIn,Conditions,Clouds,dailyrainin,SoftwareType,DateUTC
2013-09-05 00:01:00,75.4,74.2,30.08,South,180,0.0,0.0,96,0.00,RA,,0.00,WeatherDisplay:10.37,2013-09-05 04:01:00,
2013-09-05 00:02:00,75.4,74.2,30.08,South,180,0.0,0.0,96,0.00,RA,,0.00,WeatherDisplay:10.37,2013-09-05 04:02:00,
2013-09-05 00:07:00,75.2,74.0,30.08,South,180,0.0,0.0,96,0.00,RA,,0.00,WeatherDisplay:10.37,2013-09-05 04:07:00,
2013-09-05 00:12:00,75.0,73.8,30.07,SE,135,0.0,0.0,96,0.00,CLR,,0.00,WeatherDisplay:10.37,2013-09-05 04:12:00,
2013-09-05 00:17:00,75.0,73.8,30.08,South,180,0.0,0.0,96,0.00,CLR,,0.00,WeatherDisplay:10.37,2013-09-05 04:17:00,
2013-09-05 00:22:00,75.0,73.8,30.08,South,180,0.0,0.0,96,0.00,CLR,,0.00,WeatherDisplay:10.37,2013-09-05 04:22:00,
2013-09-05 00:27:00,75.0,73.8,30.07,South,180,0.0,0.0,96,0.00,CLR,,0.00,WeatherDisplay:10.37,2013-09-05 04:27:00,
2013-09-05 00:32:00,74.8,73.6,30.07,SSE,158,0.0,0.0,96,0.00,CLR,,0.00,WeatherDisplay:10.37,2013-09-05 04:32:00,
2013-09-05 00:37:00,74.8,73.6,30.08,SSE,158,0.0,0.0,96,0.00,CLR,,0.00,WeatherDisplay:10.37,2013-09-05 04:37:00,
2013-09-05 00:42:00,74.7,73.5,30.08,South,180,0.0,0.0,96,0.00,CLR,,0.00,WeatherDisplay:10.37,2013-09-05 04:42:00,
2013-09-05 00:47:00,74.7,73.8,30.07,South,180,0.0,0.0,97,0.00,CLR,,0.00,WeatherDisplay:10.37,2013-09-05 04:47:00,
2013-09-05 00:52:00,74.5,73.6,30.08,South,180,0.0,0.0,97,0.00,CLR,,0.00,WeatherDisplay:10.37,2013-09-05 04:52:00,
2013-09-05 00:57:00,74.5,73.6,30.08,SSE,158,0.0,0.0,97,0.00,CLR,,0.00,WeatherDisplay:10.37,2013-09-05 04:57:00,
2013-09-05 01:02:00,74.3,73.4,30.08,South,180,0.0,0.0,97,0.00,CLR,,0.00,WeatherDisplay:10.37,2013-09-05 05:02:00,
2013-09-05 01:07:00,74.3,73.4,30.07,South,180,0.0,0.0,97,0.00,CLR,,0.00,WeatherDisplay:10.37,2013-09-05 05:07:00,
2013-09-05 01:12:00,74.3,73.4,30.07,South,180,0.0,0.0,97,0.00,CLR,,0.00,WeatherDisplay:10.37,2013-09-05 05:12:00,
2013-09-05 01:17:00,74.5,73.6,30.08,South,180,0.0,0.0,97,0.00,CLR,,0.00,WeatherDisplay:10.37,2013-09-05 05:17:00,
2013-09-05 01:22:00,74.5,73.9,30.07,South,180,0.0,0.0,98,0.00,SCT,,0.00,WeatherDisplay:10.37,2013-09-05 05:22:00,
2013-09-05 01:27:00,74.5,73.9,30.07,South,180,0.0,0.0,98,0.00,SCT,,0.00,WeatherDisplay:10.37,2013-09-05 05:27:00,
2013-09-05 01:32:00,74.5,73.9,30.08,South,180,0.0,0.0,98,0.00,SCT,,0.00,WeatherDisplay:10.37,2013-09-05 05:32:00,
2013-09-05 01:37:00,74.5,73.9,30.08,South,180,0.0,0.0,98,0.00,SCT,,0.00,WeatherDisplay:10.37,2013-09-05 05:37:00,
2013-09-05 01:42:00,74.5,73.9,30.07,South,180,0.0,0.0,98,0.00,SCT,,0.00,WeatherDisplay:10.37,2013-09-05 05:42:00,
2013-09-05 01:47:00,74.5,73.9,30.07,SSW,202,0.0,0.0,98,0.00,SCT,,0.00,WeatherDisplay:10.37,2013-09-05 05:47:00,
2013-09-05 01:52:00,74.7,74.1,30.08,South,180,0.0,0.0,98,0.00,SCT,,0.00,WeatherDisplay:10.37,2013-09-05 05:52:00,
2013-09-05 01:57:00,74.7,74.1,30.07,SSE,158,0.0,0.0,98,0.00,SCT,,0.00,WeatherDisplay:10.37,2013-09-05 05:57:00,
2013-09-05 02:03:00,74.7,74.1,30.06,South,180,0.0,0.0,98,0.00,SCT,,0.00,WeatherDisplay:10.37,2013-09-05 06:03:00,
2013-09-05 02:08:00,74.7,74.1,30.06,South,180,0.0,0.0,98,0.00,SCT,,0.00,WeatherDisplay:10.37,2013-09-05 06:08:00,
2013-09-05 02:13:00,74.7,74.1,30.06,South,180,0.0,0.0,98,0.00,BKN,,0.00,WeatherDisplay:10.37,2013-09-05 06:13:00,
2013-09-05 02:18:00,74.7,74.1,30.06,South,180,0.0,0.0,98,0.00,BKN,,0.00,WeatherDisplay:10.37,2013-09-05 06:18:00,
2013-09-05 02:23:00,74.7,74.1,30.06,South,180,0.0,0.0,98,0.00,BKN,,0.00,WeatherDisplay:10.37,2013-09-05 06:23:00,
2013-09-05 02:28:00,74.7,74.1,30.06,South,180,0.0,0.0,98,0.00,BKN,,0.00,WeatherDisplay:10.37,2013-09-05 06:28:00,
2013-09-05 02:33:00,74.7,74.1,30.06,South,180,0.0,0.0,98,0.00,BKN,,0.00,WeatherDisplay:10.37,2013-09-05 06:33:00,
2013-09-05 02:38:00,74.7,74.1,30.06,South,180,0.0,0.0,98,0.00,BKN,,0.00,WeatherDisplay:10.37,2013-09-05 06:38:00,
2013-09-05 02:43:00,74.7,74.1,30.06,South,180,0.0,0.0,98,0.00,BKN,,0.00,WeatherDisplay:10.37,2013-09-05 06:43:00,
2013-09-05 02:48:00,74.7,74.1,30.06,South,180,0.0,0.0,98,0.00,BKN,,0.00,WeatherDisplay:10.37,2013-09-05 06:48:00,
2013-09-05 02:53:00,74.7,74.1,30.06,South,180,0.0,0.0,98,0.00,BKN,,0.00,WeatherDisplay:10.37,2013-09-05 06:53:00,
2013-09-05 02:58:00,74.7,74.1,30.05,South,180,0.0,0.0,98,0.00,BKN,,0.00,WeatherDisplay:10.37,2013-09-05 06:58:00,
2013-09-05 03:03:00,74.7,74.1,30.05,South,180,0.0,0.0,98,0.00,BKN,,0.00,WeatherDisplay:10.37,2013-09-05 07:03:00,
2013-09-05 03:08:00,74.7,74.1,30.06,South,180,0.0,0.0,98,0.00,BKN,,0.00,WeatherDisplay:10.37,2013-09-05 07:08:00,
2013-09-05 03:13:00,74.7,74.1,30.05,South,180,0.0,0.0,98,0.00,BKN,,0.00,WeatherDisplay:10.37,2013-09-05 07:13:00,
2013-09-05 03:18:00,74.5,73.9,30.05,South,180,0.0,0.0,98,0.00,BKN,,0.00,WeatherDisplay:10.37,2013-09-05 07:18:00,
2013-09-05 03:23:00,74.5,73.9,30.05,South,180,0.0,0.0,98,0.00,BKN,,0.00,WeatherDisplay:10.37,2013-09-05 07:23:00,
2013-09-05 03:28:00,74.5,73.9,30.05,South,180,0.0,0.0,98,0.00,BKN,,0.00,WeatherDisplay:10.37,2013-09-05 07:28:00,
2013-09-05 03:33:00,74.5,73.9,30.05,SSE,158,0.0,0.0,98,0.00,BKN,,0.00,WeatherDisplay:10.37,2013-09-05 07:33:00,
2013-09-05 03:38:00,74.5,73.9,30.05,SSE,158,0.0,0.0,98,0.00,BKN,,0.00,WeatherDisplay:10.37,2013-09-05 07:38:00,
2013-09-05 03:43:00,74.3,73.7,30.05,South,180,0.0,0.0,98,0.00,BKN,,0.00,WeatherDisplay:10.37,2013-09-05 07:43:00,
2013-09-05 03:48:00,74.3,73.7,30.04,South,180,0.0,0.0,98,0.00,BKN,,0.00,WeatherDisplay:10.37,2013-09-05 07:48:00,
2013-09-05 03:53:00,74.1,73.5,30.04,South,180,0.0,0.0,98,0.00,BKN,,0.00,WeatherDisplay:10.37,2013-09-05 07:53:00,
2013-09-05 03:58:00,74.1,73.5,30.05,South,180,0.0,0.0,98,0.00,BKN,,0.00,WeatherDisplay:10.37,2013-09-05 07:58:00,
2013-09-05 04:03:00,74.1,73.5,30.05,South,180,0.0,0.0,98,0.00,BKN,,0.00,WeatherDisplay:10.37,2013-09-05 08:03:00,
2013-09-05 04:08:00,74.1,73.5,30.04,SSE,158,0.0,0.0,98,0.00,BKN,,0.00,WeatherDisplay:10.37,2013-09-05 08:08:00,
2013-09-05 04:13:00,73.9,73.3,30.04,ESE,112,0.0,0.0,98,0.00,FEW,,0.00,WeatherDisplay:10.37,2013-09-05 08:13:00,
2013-09-05 04:18:00,73.9,73.3,30.04,South,180,0.0,0.0,98,0.00,FEW,,0.00,WeatherDisplay:10.37,2013-09-05 08:18:00,
2013-09-05 04:23:00,73.9,73.3,30.04,South,180,0.0,0.0,98,0.00,FEW,,0.00,WeatherDisplay:10.37,2013-09-05 08:23:00,
2013-09-05 04:28:00,73.9,73.3,30.04,South,180,0.0,0.0,98,0.00,FEW,,0.00,WeatherDisplay:10.37,2013-09-05 08:28:00,
2013-09-05 04:33:00,73.9,73.3,30.04,South,180,0.0,0.0,98,0.00,FEW,,0.00,WeatherDisplay:10.37,2013-09-05 08:33:00,
2013-09-05 04:38:00,73.8,73.2,30.04,South,180,0.0,0.0,98,0.00,FEW,,0.00,WeatherDisplay:10.37,2013-09-05 08:38:00,
2013-09-05 04:43:00,73.8,73.2,30.04,South,180,0.0,0.0,98,0.00,FEW,,0.00,WeatherDisplay:10.37,2013-09-05 08:43:00,
2013-09-05 04:48:00,73.6,73.0,30.04,SE,135,0.0,0.0,98,0.00,FEW,,0.00,WeatherDisplay:10.37,2013-09-05 08:48:00,
2013-09-05 04:53:00,73.6,73.0,30.05,South,180,0.0,0.0,98,0.00,BKN,,0.00,WeatherDisplay:10.37,2013-09-05 08:53:00,
2013-09-05 04:58:00,73.6,73.0,30.05,SE,135,0.0,0.0,98,0.00,BKN,,0.00,WeatherDisplay:10.37,2013-09-05 08:58:00,
2013-09-05 05:03:00,73.6,73.0,30.04,South,180,0.0,0.0,98,0.00,BKN,,0.00,WeatherDisplay:10.37,2013-09-05 09:03:00,
2013-09-05 05:08:00,73.6,73.0,30.05,South,180,0.0,0.0,98,0.00,BKN,,0.00,WeatherDisplay:10.37,2013-09-05 09:08:00,
2013-09-05 05:13:00,73.4,72.8,30.05,South,180,0.0,0.0,98,0.00,FEW,,0.00,WeatherDisplay:10.37,2013-09-05 09:13:00,
2013-09-05 05:18:00,73.2,72.6,30.05,South,180,0.0,0.0,98,0.00,FEW,,0.00,WeatherDisplay:10.37,2013-09-05 09:18:00,
2013-09-05 05:23:00,73.2,72.6,30.05,South,180,0.0,0.0,98,0.00,FEW,,0.00,WeatherDisplay:10.37,2013-09-05 09:23:00,
2013-09-05 05:28:00,73.2,72.6,30.05,South,180,0.0,0.0,98,0.00,FEW,,0.00,WeatherDisplay:10.37,2013-09-05 09:28:00,
2013-09-05 05:33:00,73.2,72.6,30.05,South,180,0.0,0.0,98,0.00,FEW,,0.00,WeatherDisplay:10.37,2013-09-05 09:33:00,
2013-09-05 05:38:00,73.2,72.6,30.04,South,180,0.0,0.0,98,0.00,FEW,,0.00,WeatherDisplay:10.37,2013-09-05 09:38:00,
2013-09-05 05:43:00,73.2,72.6,30.05,South,180,0.0,0.0,98,0.00,FEW,,0.00,WeatherDisplay:10.37,2013-09-05 09:43:00,
2013-09-05 05:48:00,73.2,72.6,30.05,South,180,0.0,0.0,98,0.00,FEW,,0.00,WeatherDisplay:10.37,2013-09-05 09:48:00,
2013-09-05 05:53:00,73.2,72.6,30.05,South,180,0.0,0.0,98,0.00,FEW,,0.00,WeatherDisplay:10.37,2013-09-05 09:53:00,
2013-09-05 05:58:00,73.2,72.6,30.03,SSE,158,0.0,0.0,98,0.00,FEW,,0.00,WeatherDisplay:10.37,2013-09-05 09:58:00,
2013-09-05 06:03:00,73.0,72.4,30.05,South,180,0.0,0.0,98,0.00,FEW,,0.00,WeatherDisplay:10.37,2013-09-05 10:03:00,
2013-09-05 06:08:00,72.9,72.3,30.05,South,180,0.0,0.0,98,0.00,FEW,,0.00,WeatherDisplay:10.37,2013-09-05 10:08:00,
2013-09-05 06:13:00,72.9,72.3,30.04,ESE,112,0.0,0.0,98,0.00,CLR,,0.00,WeatherDisplay:10.37,2013-09-05 10:13:00,
2013-09-05 06:18:00,72.9,72.3,30.04,South,180,0.0,0.0,98,0.00,CLR,,0.00,WeatherDisplay:10.37,2013-09-05 10:18:00,
2013-09-05 06:23:00,72.9,72.3,30.04,South,180,0.0,0.0,98,0.00,CLR,,0.00,WeatherDisplay:10.37,2013-09-05 10:23:00,
2013-09-05 06:28:00,72.9,72.3,30.04,South,180,0.0,0.0,98,0.00,CLR,,0.00,WeatherDisplay:10.37,2013-09-05 10:28:00,
2013-09-05 06:33:00,72.9,72.3,30.04,South,180,0.0,0.0,98,0.00,CLR,,0.00,WeatherDisplay:10.37,2013-09-05 10:33:00,
2013-09-05 06:38:00,72.9,72.3,30.05,South,180,0.0,0.0,98,0.00,CLR,,0.00,WeatherDisplay:10.37,2013-09-05 10:38:00,
2013-09-05 06:43:00,72.9,72.3,30.04,South,180,0.0,0.0,98,0.00,CLR,,0.00,WeatherDisplay:10.37,2013-09-05 10:43:00,
2013-09-05 06:48:00,72.9,72.3,30.04,South,180,0.0,0.0,98,0.00,CLR,,0.00,WeatherDisplay:10.37,2013-09-05 10:48:00,
2013-09-05 06:53:00,72.9,72.3,30.05,South,180,0.0,0.0,98,0.00,CLR,,0.00,WeatherDisplay:10.37,2013-09-05 10:53:00,
2013-09-05 06:58:00,72.9,72.3,30.05,South,180,0.0,0.0,98,0.00,CLR,,0.00,WeatherDisplay:10.37,2013-09-05 10:58:00,
2013-09-05 07:03:00,72.9,72.3,30.05,ESE,112,0.0,0.0,98,0.00,CLR,,0.00,WeatherDisplay:10.37,2013-09-05 11:03:00,
2013-09-05 07:08:00,72.9,72.3,30.05,South,180,0.0,0.0,98,0.00,CLR,,0.00,WeatherDisplay:10.37,2013-09-05 11:08:00,
2013-09-05 07:13:00,72.9,72.3,30.06,South,180,0.0,0.0,98,0.00,CLR,,0.00,WeatherDisplay:10.37,2013-09-05 11:13:00,
2013-09-05 07:18:00,72.9,72.3,30.06,South,180,0.0,0.0,98,0.00,CLR,,0.00,WeatherDisplay:10.37,2013-09-05 11:18:00,
2013-09-05 07:23:00,72.9,72.3,30.06,South,180,0.0,0.0,98,0.00,BKN,,0.00,WeatherDisplay:10.37,2013-09-05 11:23:00,
2013-09-05 07:28:00,72.9,72.3,30.06,South,180,0.0,0.0,98,0.00,BKN,,0.00,WeatherDisplay:10.37,2013-09-05 11:28:00,
2013-09-05 07:34:00,72.9,72.3,30.06,South,180,0.0,0.0,98,0.00,BKN,,0.00,WeatherDisplay:10.37,2013-09-05 11:34:00,
2013-09-05 07:39:00,73.0,72.4,30.06,South,180,0.0,0.0,98,0.00,BKN,,0.00,WeatherDisplay:10.37,2013-09-05 11:39:00,
2013-09-05 07:44:00,73.2,72.6,30.06,South,180,0.0,0.0,98,0.00,SCT,,0.00,WeatherDisplay:10.37,2013-09-05 11:44:00,
2013-09-05 07:49:00,73.4,72.8,30.06,SSE,158,0.0,0.0,98,0.00,SCT,,0.00,WeatherDisplay:10.37,2013-09-05 11:49:00,
2013-09-05 07:54:00,73.6,73.0,30.06,South,180,0.0,0.0,98,0.00,SCT,,0.00,WeatherDisplay:10.37,2013-09-05 11:54:00,
2013-09-05 07:59:00,73.6,73.0,30.06,South,180,0.0,0.0,98,0.00,SCT,,0.00,WeatherDisplay:10.37,2013-09-05 11:59:00,
2013-09-05 08:04:00,73.9,73.3,30.06,SSE,158,0.0,0.0,98,0.00,SCT,,0.00,WeatherDisplay:10.37,2013-09-05 12:04:00,
2013-09-05 08:09:00,74.1,73.5,30.06,South,180,0.0,0.0,98,0.00,SCT,,0.00,WeatherDisplay:10.37,2013-09-05 12:09:00,
2013-09-05 08:14:00,75.0,74.4,30.06,SSW,202,0.0,0.0,98,0.00,CLR,,0.00,WeatherDisplay:10.37,2013-09-05 12:14:00,
2013-09-05 08:19:00,75.2,74.6,30.06,ESE,112,0.0,0.0,98,0.00,CLR,,0.00,WeatherDisplay:10.37,2013-09-05 12:19:00,
2013-09-05 08:24:00,75.4,74.8,30.06,East,90,0.0,0.0,98,0.00,CLR,,0.00,WeatherDisplay:10.37,2013-09-05 12:24:00,
2013-09-05 08:29:00,75.7,75.1,30.07,SE,135,0.0,0.0,98,0.00,CLR,,0.00,WeatherDisplay:10.37,2013-09-05 12:29:00,
2013-09-05 08:34:00,75.9,75.3,30.07,South,180,0.0,0.0,98,0.00,CLR,,0.00,WeatherDisplay:10.37,2013-09-05 12:34:00,
2013-09-05 08:39:00,75.9,75.3,30.07,SSW,202,0.0,0.0,98,0.00,CLR,,0.00,WeatherDisplay:10.37,2013-09-05 12:39:00,
2013-09-05 08:44:00,76.1,75.5,30.07,South,180,0.0,0.0,98,0.00,CLR,,0.00,WeatherDisplay:10.37,2013-09-05 12:44:00,
2013-09-05 08:49:00,76.3,75.7,30.07,South,180,0.0,0.0,98,0.00,CLR,,0.00,WeatherDisplay:10.37,2013-09-05 12:49:00,
2013-09-05 08:54:00,76.3,75.7,30.07,South,180,0.0,0.0,98,0.00,BKN,,0.00,WeatherDisplay:10.37,2013-09-05 12:54:00,
2013-09-05 08:59:00,76.5,75.9,30.07,SSE,158,0.0,0.0,98,0.00,BKN,,0.00,WeatherDisplay:10.37,2013-09-05 12:59:00,
2013-09-05 09:04:00,76.5,75.9,30.07,SSE,158,0.0,0.0,98,0.00,BKN,,0.00,WeatherDisplay:10.37,2013-09-05 13:04:00,
2013-09-05 09:09:00,76.6,76.0,30.07,South,180,0.0,0.0,98,0.00,BKN,,0.00,WeatherDisplay:10.37,2013-09-05 13:09:00,
2013-09-05 09:14:00,77.0,76.4,30.07,East,90,0.0,0.0,98,0.00,BKN,,0.00,WeatherDisplay:10.37,2013-09-05 13:14:00,
2013-09-05 09:19:00,77.2,76.3,30.07,ENE,68,0.0,0.0,97,0.00,BKN,,0.00,WeatherDisplay:10.37,2013-09-05 13:19:00,
2013-09-05 09:24:00,77.7,76.2,30.08,South,180,0.0,0.0,95,0.00,BKN,,0.00,WeatherDisplay:10.37,2013-09-05 13:24:00,
2013-09-05 09:29:00,78.1,76.6,30.07,South,180,0.0,0.0,95,0.00,BKN,,0.00,WeatherDisplay:10.37,2013-09-05 13:29:00,
2013-09-05 09:34:00,78.3,76.4,30.08,South,180,0.0,0.0,94,0.00,BKN,,0.00,WeatherDisplay:10.37,2013-09-05 13:34:00,
2013-09-05 09:39:00,78.3,76.4,30.08,South,180,0.0,0.0,94,0.00,BKN,,0.00,WeatherDisplay:10.37,2013-09-05 13:39:00,
2013-09-05 09:44:00,78.3,76.4,30.07,South,180,0.0,0.0,94,0.00,BKN,,0.00,WeatherDisplay:10.37,2013-09-05 13:44:00,
2013-09-05 09:49:00,78.3,76.1,30.08,South,180,0.0,0.0,93,0.00,BKN,,0.00,WeatherDisplay:10.37,2013-09-05 13:49:00,
2013-09-05 09:54:00,78.3,76.1,30.08,South,180,0.0,0.0,93,0.00,OVC,,0.00,WeatherDisplay:10.37,2013-09-05 13:54:00,
2013-09-05 09:59:00,78.3,75.8,30.08,South,180,0.0,0.0,92,0.00,OVC,,0.00,WeatherDisplay:10.37,2013-09-05 13:59:00,
2013-09-05 10:04:00,78.8,75.3,30.08,South,180,0.0,0.0,89,0.00,OVC,,0.00,WeatherDisplay:10.37,2013-09-05 14:04:00,
2013-09-05 10:09:00,79.0,75.8,30.08,South,180,0.0,0.0,90,0.00,OVC,,0.00,WeatherDisplay:10.37,2013-09-05 14:09:00,
2013-09-05 10:14:00,79.0,76.1,30.08,SE,135,0.0,0.0,91,0.00,SCT,,0.00,WeatherDisplay:10.37,2013-09-05 14:14:00,
2013-09-05 10:19:00,79.2,76.0,30.08,South,180,0.0,0.0,90,0.00,SCT,,0.00,WeatherDisplay:10.37,2013-09-05 14:19:00,
2013-09-05 10:24:00,79.3,76.1,30.08,NNW,338,5.4,5.4,90,0.00,SCT,,0.00,WeatherDisplay:10.37,2013-09-05 14:24:00,
2013-09-05 10:29:00,79.5,75.6,30.08,ESE,112,0.0,0.0,88,0.00,SCT,,0.00,WeatherDisplay:10.37,2013-09-05 14:29:00,
2013-09-05 10:34:00,79.5,76.0,30.08,South,180,0.0,0.0,89,0.00,SCT,,0.00,WeatherDisplay:10.37,2013-09-05 14:34:00,
2013-09-05 10:39:00,79.5,76.0,30.08,SSW,202,0.0,0.0,89,0.00,SCT,,0.00,WeatherDisplay:10.37,2013-09-05 14:39:00,
2013-09-05 10:44:00,80.2,76.3,30.08,SSE,158,0.0,0.0,88,0.00,SCT,,0.00,WeatherDisplay:10.37,2013-09-05 14:44:00,
2013-09-05 10:49:00,81.3,76.0,30.08,South,180,0.0,0.0,84,0.00,SCT,,0.00,WeatherDisplay:10.37,2013-09-05 14:49:00,
2013-09-05 10:54:00,81.0,76.1,30.08,South,180,0.0,0.0,85,0.00,SCT,,0.00,WeatherDisplay:10.37,2013-09-05 14:54:00,
2013-09-05 10:59:00,80.4,76.5,30.08,SSE,158,0.0,0.0,88,0.00,SCT,,0.00,WeatherDisplay:10.37,2013-09-05 14:59:00,
2013-09-05 11:04:00,81.0,77.1,30.08,NNE,22,4.3,4.3,88,0.00,SCT,,0.00,WeatherDisplay:10.37,2013-09-05 15:04:00,
2013-09-05 11:09:00,81.0,76.8,30.08,South,180,0.0,0.0,87,0.00,SCT,,0.00,WeatherDisplay:10.37,2013-09-05 15:09:00,
2013-09-05 11:14:00,81.0,76.8,30.08,South,180,0.0,0.0,87,0.00,SCT,,0.00,WeatherDisplay:10.37,2013-09-05 15:14:00,
2013-09-05 11:19:00,80.6,76.7,30.08,South,180,0.0,0.0,88,0.00,SCT,,0.00,WeatherDisplay:10.37,2013-09-05 15:19:00,
2013-09-05 11:24:00,80.2,76.7,30.08,South,180,0.0,0.0,89,0.00,CLR,,0.00,WeatherDisplay:10.37,2013-09-05 15:24:00,
2013-09-05 11:29:00,80.1,76.9,30.07,South,180,0.0,0.0,90,0.00,CLR,,0.00,WeatherDisplay:10.37,2013-09-05 15:29:00,
2013-09-05 12:02:00,81.7,77.8,30.07,North,0,5.4,0.0,88,0.00,CLR,,0.00,WeatherDisplay:10.37,2013-09-05 16:02:00,
2013-09-05 12:07:00,81.5,77.6,30.07,South,180,6.9,6.9,88,0.00,CLR,,0.00,WeatherDisplay:10.37,2013-09-05 16:07:00,
2013-09-05 12:12:00,81.7,77.8,30.07,South,180,6.9,6.9,88,0.00,OVC,,0.00,WeatherDisplay:10.37,2013-09-05 16:12:00,
2013-09-05 12:17:00,81.9,78.0,30.08,SSW,202,6.9,6.9,88,0.00,OVC,,0.00,WeatherDisplay:10.37,2013-09-05 16:17:00,
2013-09-05 12:22:00,81.9,78.0,30.08,South,180,6.4,6.4,88,0.00,OVC,,0.00,WeatherDisplay:10.37,2013-09-05 16:22:00,
2013-09-05 12:27:00,82.0,78.1,30.08,South,180,6.9,6.9,88,0.00,OVC,,0.00,WeatherDisplay:10.37,2013-09-05 16:27:00,
2013-09-05 12:32:00,82.0,77.4,30.07,South,180,5.8,5.8,86,0.00,OVC,,0.00,WeatherDisplay:10.37,2013-09-05 16:32:00,
2013-09-05 12:37:00,82.0,77.7,30.07,SSE,158,6.9,6.9,87,0.00,OVC,,0.00,WeatherDisplay:10.37,2013-09-05 16:37:00,
2013-09-05 12:42:00,82.0,77.7,30.07,South,180,6.9,6.9,87,0.00,OVC,,0.00,WeatherDisplay:10.37,2013-09-05 16:42:00,
2013-09-05 12:47:00,82.2,78.3,30.07,South,180,6.9,6.9,88,0.00,OVC,,0.00,WeatherDisplay:10.37,2013-09-05 16:47:00,
2013-09-05 12:53:00,82.2,77.9,30.07,South,180,5.4,5.4,87,0.00,SCT,,0.00,WeatherDisplay:10.37,2013-09-05 16:53:00,
2013-09-05 12:58:00,82.2,77.9,30.06,South,180,6.9,6.9,87,0.00,SCT,,0.00,WeatherDisplay:10.37,2013-09-05 16:58:00,
2013-09-05 13:03:00,82.2,77.9,30.06,South,180,6.9,6.9,87,0.00,SCT,,0.00,WeatherDisplay:10.37,2013-09-05 17:03:00,
2013-09-05 13:08:00,82.0,78.1,30.06,South,180,5.8,5.8,88,0.00,SCT,,0.00,WeatherDisplay:10.37,2013-09-05 17:08:00,
2013-09-05 13:13:00,82.2,77.6,30.06,South,180,5.8,5.8,86,0.00,CLR,,0.00,WeatherDisplay:10.37,2013-09-05 17:13:00,
2013-09-05 13:18:00,82.2,77.9,30.06,SSE,158,7.4,7.4,87,0.00,CLR,,0.00,WeatherDisplay:10.37,2013-09-05 17:18:00,
2013-09-05 13:23:00,82.2,77.2,30.07,South,180,7.4,7.4,85,0.00,CLR,,0.00,WeatherDisplay:10.37,2013-09-05 17:23:00,
2013-09-05 13:28:00,82.4,77.8,30.05,South,180,6.9,6.9,86,0.00,CLR,,0.00,WeatherDisplay:10.37,2013-09-05 17:28:00,
2013-09-05 13:33:00,82.4,77.4,30.05,South,180,5.8,5.8,85,0.00,CLR,,0.00,WeatherDisplay:10.37,2013-09-05 17:33:00,
2013-09-05 13:38:00,82.4,77.4,30.05,South,180,7.4,7.4,85,0.00,CLR,,0.00,WeatherDisplay:10.37,2013-09-05 17:38:00,
2013-09-05 13:43:00,82.4,77.8,30.07,South,180,6.9,6.9,86,0.00,CLR,,0.00,WeatherDisplay:10.37,2013-09-05 17:43:00,
2013-09-05 13:48:00,82.2,76.9,30.05,SSE,158,6.9,6.9,84,0.00,CLR,,0.00,WeatherDisplay:10.37,2013-09-05 17:48:00,
2013-09-05 13:53:00,82.4,77.4,30.04,South,180,6.9,6.9,85,0.00,CLR,,0.00,WeatherDisplay:10.37,2013-09-05 17:53:00,
2013-09-05 13:58:00,82.4,77.8,30.07,South,180,8.1,8.1,86,0.00,CLR,,0.00,WeatherDisplay:10.37,2013-09-05 17:58:00,
2013-09-05 14:03:00,82.2,77.6,30.07,South,180,6.9,6.9,86,0.00,CLR,,0.00,WeatherDisplay:10.37,2013-09-05 18:03:00,
2013-09-05 14:08:00,82.2,77.9,30.07,South,180,6.9,6.9,87,0.00,CLR,,0.00,WeatherDisplay:10.37,2013-09-05 18:08:00,
2013-09-05 14:13:00,82.4,77.8,30.04,South,180,6.9,6.9,86,0.00,CLR,,0.00,WeatherDisplay:10.37,2013-09-05 18:13:00,
2013-09-05 14:18:00,82.8,77.5,30.04,SSW,202,8.1,8.1,84,0.00,CLR,,0.00,WeatherDisplay:10.37,2013-09-05 18:18:00,
2013-09-05 14:23:00,82.4,77.4,30.05,South,180,9.2,9.2,85,0.00,CLR,,0.00,WeatherDisplay:10.37,2013-09-05 18:23:00,
2013-09-05 14:28:00,82.4,77.8,30.05,South,180,8.4,8.4,86,0.00,CLR,,0.00,WeatherDisplay:10.37,2013-09-05 18:28:00,
2013-09-05 14:33:00,82.2,77.2,30.03,South,180,4.6,4.6,85,0.00,CLR,,0.00,WeatherDisplay:10.37,2013-09-05 18:33:00,
2013-09-05 14:38:00,82.6,77.6,30.03,South,180,7.4,7.4,85,0.00,CLR,,0.00,WeatherDisplay:10.37,2013-09-05 18:38:00,
2013-09-05 14:43:00,82.6,77.6,30.05,South,180,7.4,7.4,85,0.00,CLR,,0.00,WeatherDisplay:10.37,2013-09-05 18:43:00,
2013-09-05 14:48:00,82.6,77.3,30.05,South,180,6.9,6.9,84,0.00,CLR,,0.00,WeatherDisplay:10.37,2013-09-05 18:48:00,
2013-09-05 14:53:00,82.6,77.3,30.05,South,180,6.9,6.9,84,0.00,CLR,,0.00,WeatherDisplay:10.37,2013-09-05 18:53:00,
2013-09-05 14:58:00,82.6,78.0,30.05,SSE,158,6.9,6.9,86,0.00,CLR,,0.00,WeatherDisplay:10.37,2013-09-05 18:58:00,
2013-09-05 15:03:00,82.4,77.4,30.05,South,180,6.9,6.9,85,0.00,CLR,,0.00,WeatherDisplay:10.37,2013-09-05 19:03:00,
2013-09-05 15:08:00,81.9,76.9,30.05,South,180,5.8,5.8,85,0.00,CLR,,0.00,WeatherDisplay:10.37,2013-09-05 19:08:00,
2013-09-05 15:13:00,81.5,76.9,30.04,South,180,5.8,5.8,86,0.00,SCT,,0.00,WeatherDisplay:10.37,2013-09-05 19:13:00,
2013-09-05 15:18:00,81.0,76.8,30.04,South,180,5.8,5.8,87,0.00,SCT,,0.00,WeatherDisplay:10.37,2013-09-05 19:18:00,
2013-09-05 15:23:00,81.0,76.4,30.04,South,180,0.0,0.0,86,0.00,SCT,,0.00,WeatherDisplay:10.37,2013-09-05 19:23:00,
2013-09-05 15:28:00,80.1,76.2,30.04,SW,225,0.0,0.0,88,0.00,SCT,,0.00,WeatherDisplay:10.37,2013-09-05 19:28:00,
2013-09-05 15:33:00,79.7,76.8,30.03,WNW,292,0.0,0.0,91,0.00,BKN,,0.00,WeatherDisplay:10.37,2013-09-05 19:33:00,
2013-09-05 15:38:00,79.3,77.1,30.03,NNE,22,0.0,0.0,93,0.00,BKN,,0.00,WeatherDisplay:10.37,2013-09-05 19:38:00,
2013-09-05 15:43:00,78.6,76.1,30.03,South,180,5.8,5.8,92,0.00,BKN,,0.00,WeatherDisplay:10.37,2013-09-05 19:43:00,
2013-09-05 15:48:00,78.1,76.2,30.03,SSW,202,0.0,0.0,94,0.00,BKN,,0.00,WeatherDisplay:10.37,2013-09-05 19:48:00,
2013-09-05 15:53:00,78.3,76.4,30.03,NNW,338,0.0,0.0,94,0.00, +RA,,0.00,WeatherDisplay:10.37,2013-09-05 19:53:00,
2013-09-05 15:58:00,78.3,76.4,30.03,South,180,0.0,0.0,94,0.00, +RA,,0.00,WeatherDisplay:10.37,2013-09-05 19:58:00,
2013-09-05 16:03:00,78.1,76.6,30.03,South,180,0.0,0.0,95,0.00, +RA,,0.00,WeatherDisplay:10.37,2013-09-05 20:03:00,
2013-09-05 16:08:00,78.1,76.6,30.03,SSW,202,0.0,0.0,95,0.00, +RA,,0.00,WeatherDisplay:10.37,2013-09-05 20:08:00,
2013-09-05 16:13:00,77.9,76.4,30.03,SSW,202,0.0,0.0,95,0.00,-RA,,0.00,WeatherDisplay:10.37,2013-09-05 20:13:00,
2013-09-05 16:18:00,77.7,76.5,30.03,WSW,248,0.0,0.0,96,0.00,-RA,,0.00,WeatherDisplay:10.37,2013-09-05 20:18:00,
2013-09-05 16:23:00,77.5,76.3,30.03,SSW,202,0.0,0.0,96,0.00,-RA,,0.00,WeatherDisplay:10.37,2013-09-05 20:23:00,
2013-09-05 16:28:00,77.4,76.2,30.03,ENE,68,0.0,0.0,96,0.00,-RA,,0.00,WeatherDisplay:10.37,2013-09-05 20:28:00,
2013-09-05 16:33:00,77.4,76.2,30.03,NNW,338,0.0,0.0,96,0.00,-RA,,0.00,WeatherDisplay:10.37,2013-09-05 20:33:00,
2013-09-05 16:38:00,77.2,76.0,30.03,SW,225,0.0,0.0,96,0.00,-RA,,0.00,WeatherDisplay:10.37,2013-09-05 20:38:00,
2013-09-05 16:43:00,77.0,75.8,30.03,NNE,22,0.0,0.0,96,0.00,-RA,,0.00,WeatherDisplay:10.37,2013-09-05 20:43:00,
2013-09-05 16:48:00,77.0,75.8,30.03,South,180,0.0,0.0,96,0.00,-RA,,0.00,WeatherDisplay:10.37,2013-09-05 20:48:00,
2013-09-05 17:03:00,76.8,75.9,30.02,South,180,0.0,0.0,97,0.00,-RA,,0.00,WeatherDisplay:10.37,2013-09-05 21:03:00,
2013-09-05 17:08:00,76.6,75.7,30.03,SSW,202,0.0,0.0,97,0.00,-RA,,0.00,WeatherDisplay:10.37,2013-09-05 21:08:00,
2013-09-05 17:13:00,76.6,75.7,30.02,West,270,0.0,0.0,97,0.00,CLR,,0.00,WeatherDisplay:10.37,2013-09-05 21:13:00,
2013-09-05 17:18:00,76.6,75.7,30.02,SW,225,0.0,0.0,97,0.00,CLR,,0.00,WeatherDisplay:10.37,2013-09-05 21:18:00,
2013-09-05 17:23:00,76.3,75.4,30.02,WNW,292,0.0,0.0,97,0.00,CLR,,0.00,WeatherDisplay:10.37,2013-09-05 21:23:00,
2013-09-05 17:28:00,76.1,75.2,30.02,South,180,0.0,0.0,97,0.00,CLR,,0.00,WeatherDisplay:10.37,2013-09-05 21:28:00,
2013-09-05 17:33:00,76.1,75.2,30.02,SSE,158,0.0,0.0,97,0.00,CLR,,0.00,WeatherDisplay:10.37,2013-09-05 21:33:00,
2013-09-05 17:38:00,75.9,75.0,30.02,SSE,158,0.0,0.0,97,0.00,CLR,,0.00,WeatherDisplay:10.37,2013-09-05 21:38:00,
2013-09-05 17:43:00,75.9,75.0,30.02,South,180,0.0,0.0,97,0.00,CLR,,0.00,WeatherDisplay:10.37,2013-09-05 21:43:00,
2013-09-05 17:48:00,75.9,75.0,30.02,South,180,0.0,0.0,97,0.00,CLR,,0.00,WeatherDisplay:10.37,2013-09-05 21:48:00,
2013-09-05 17:53:00,75.9,75.0,30.02,South,180,0.0,0.0,97,0.00,CLR,,0.00,WeatherDisplay:10.37,2013-09-05 21:53:00,
2013-09-05 17:58:00,75.9,75.0,30.02,South,180,0.0,0.0,97,0.00,CLR,,0.00,WeatherDisplay:10.37,2013-09-05 21:58:00,
2013-09-05 18:03:00,75.9,75.0,30.02,SSW,202,0.0,0.0,97,0.00,CLR,,0.00,WeatherDisplay:10.37,2013-09-05 22:03:00,
2013-09-05 18:08:00,75.9,75.0,30.01,South,180,0.0,0.0,97,0.00,CLR,,0.00,WeatherDisplay:10.37,2013-09-05 22:08:00,
2013-09-05 18:13:00,76.1,75.2,30.02,South,180,0.0,0.0,97,0.00,CLR,,0.00,WeatherDisplay:10.37,2013-09-05 22:13:00,
2013-09-05 18:18:00,76.1,75.2,30.02,SSE,158,0.0,0.0,97,0.00,CLR,,0.00,WeatherDisplay:10.37,2013-09-05 22:18:00,
2013-09-05 18:23:00,76.1,75.2,30.02,South,180,0.0,0.0,97,0.00,CLR,,0.00,WeatherDisplay:10.37,2013-09-05 22:23:00,
2013-09-05 18:28:00,76.1,75.5,30.02,South,180,0.0,0.0,98,0.00,CLR,,0.00,WeatherDisplay:10.37,2013-09-05 22:28:00,
2013-09-05 18:33:00,76.1,75.5,30.02,South,180,0.0,0.0,98,0.00,CLR,,0.00,WeatherDisplay:10.37,2013-09-05 22:33:00,
2013-09-05 18:38:00,76.3,75.7,30.02,South,180,0.0,0.0,98,0.00,CLR,,0.00,WeatherDisplay:10.37,2013-09-05 22:38:00,
2013-09-05 18:43:00,76.3,75.7,30.02,South,180,0.0,0.0,98,0.00,CLR,,0.00,WeatherDisplay:10.37,2013-09-05 22:43:00,
2013-09-05 18:48:00,76.3,75.7,30.02,WSW,248,0.0,0.0,98,0.00,CLR,,0.00,WeatherDisplay:10.37,2013-09-05 22:48:00,
2013-09-05 18:53:00,76.3,75.7,30.02,South,180,0.0,0.0,98,0.00,CLR,,0.00,WeatherDisplay:10.37,2013-09-05 22:53:00,
2013-09-05 18:58:00,76.3,75.7,30.02,South,180,0.0,0.0,98,0.00,CLR,,0.00,WeatherDisplay:10.37,2013-09-05 22:58:00,
2013-09-05 19:03:00,76.3,75.7,30.02,South,180,0.0,0.0,98,0.00,CLR,,0.00,WeatherDisplay:10.37,2013-09-05 23:03:00,
2013-09-05 19:08:00,76.1,75.2,30.02,South,180,0.0,0.0,97,0.00,CLR,,0.00,WeatherDisplay:10.37,2013-09-05 23:08:00,
2013-09-05 19:13:00,76.1,75.2,30.02,South,180,0.0,0.0,97,0.00,FEW,,0.00,WeatherDisplay:10.37,2013-09-05 23:13:00,
2013-09-05 19:18:00,76.1,75.2,30.02,South,180,0.0,0.0,97,0.00,FEW,,0.00,WeatherDisplay:10.37,2013-09-05 23:18:00,
2013-09-05 19:23:00,76.1,75.2,30.02,South,180,0.0,0.0,97,0.00,FEW,,0.00,WeatherDisplay:10.37,2013-09-05 23:23:00,
2013-09-05 20:52:00,75.0,74.4,30.02,WSW,248,0.0,0.0,98,0.00,FEW,,0.00,WeatherDisplay:10.37,2013-09-06 00:52:00,
2013-09-05 20:57:00,75.0,74.4,30.02,SW,225,0.0,0.0,98,0.00,FEW,,0.00,WeatherDisplay:10.37,2013-09-06 00:57:00,
2013-09-05 21:02:00,74.8,74.2,30.03,SSW,202,0.0,0.0,98,0.00,FEW,,0.00,WeatherDisplay:10.37,2013-09-06 01:02:00,
2013-09-05 21:07:00,74.8,74.2,30.03,SSW,202,0.0,0.0,98,0.00,FEW,,0.00,WeatherDisplay:10.37,2013-09-06 01:07:00,
2013-09-05 21:12:00,74.7,74.1,30.02,SSW,202,0.0,0.0,98,0.00,FEW,,0.00,WeatherDisplay:10.37,2013-09-06 01:12:00,
2013-09-05 21:17:00,74.7,74.1,30.03,SSW,202,0.0,0.0,98,0.00,FEW,,0.00,WeatherDisplay:10.37,2013-09-06 01:17:00,
2013-09-05 21:22:00,74.5,73.9,30.03,South,180,0.0,0.0,98,0.00,CLR,,0.00,WeatherDisplay:10.37,2013-09-06 01:22:00,
2013-09-05 21:27:00,74.5,73.9,30.03,South,180,0.0,0.0,98,0.00,CLR,,0.00,WeatherDisplay:10.37,2013-09-06 01:27:00,
2013-09-05 21:32:00,74.5,73.9,30.03,SSW,202,0.0,0.0,98,0.00,CLR,,0.00,WeatherDisplay:10.37,2013-09-06 01:32:00,
2013-09-05 21:37:00,74.3,73.7,30.03,SW,225,0.0,0.0,98,0.00,CLR,,0.00,WeatherDisplay:10.37,2013-09-06 01:37:00,
2013-09-05 21:42:00,74.3,73.7,30.03,SW,225,0.0,0.0,98,0.00,CLR,,0.00,WeatherDisplay:10.37,2013-09-06 01:42:00,
2013-09-05 21:47:00,74.3,73.7,30.03,SSW,202,0.0,0.0,98,0.00,CLR,,0.00,WeatherDisplay:10.37,2013-09-06 01:47:00,
2013-09-05 21:52:00,74.1,73.5,30.03,SSW,202,0.0,0.0,98,0.00,CLR,,0.00,WeatherDisplay:10.37,2013-09-06 01:52:00,
2013-09-05 21:57:00,73.9,73.3,30.04,South,180,0.0,0.0,98,0.00,CLR,,0.00,WeatherDisplay:10.37,2013-09-06 01:57:00,
2013-09-05 22:02:00,73.9,73.3,30.03,South,180,0.0,0.0,98,0.00,CLR,,0.00,WeatherDisplay:10.37,2013-09-06 02:02:00,
2013-09-05 22:07:00,73.9,73.3,30.03,South,180,0.0,0.0,98,0.00,CLR,,0.00,WeatherDisplay:10.37,2013-09-06 02:07:00,
2013-09-05 22:12:00,73.9,73.3,30.04,South,180,0.0,0.0,98,0.00,CLR,,0.00,WeatherDisplay:10.37,2013-09-06 02:12:00,
2013-09-05 22:17:00,73.8,73.2,30.04,South,180,0.0,0.0,98,0.00,CLR,,0.00,WeatherDisplay:10.37,2013-09-06 02:17:00,
2013-09-05 22:22:00,73.8,73.2,30.04,SW,225,0.0,0.0,98,0.00,CLR,,0.00,WeatherDisplay:10.37,2013-09-06 02:22:00,
2013-09-05 22:27:00,73.6,73.0,30.04,SSW,202,0.0,0.0,98,0.00,CLR,,0.00,WeatherDisplay:10.37,2013-09-06 02:27:00,
2013-09-05 22:32:00,73.6,73.0,30.04,SSW,202,0.0,0.0,98,0.00,CLR,,0.00,WeatherDisplay:10.37,2013-09-06 02:32:00,
2013-09-05 22:37:00,73.4,72.5,30.05,SSW,202,0.0,0.0,97,0.00,CLR,,0.00,WeatherDisplay:10.37,2013-09-06 02:37:00,
2013-09-05 22:42:00,73.4,72.5,30.05,SSW,202,0.0,0.0,97,0.00,CLR,,0.00,WeatherDisplay:10.37,2013-09-06 02:42:00,
2013-09-05 22:47:00,73.4,72.5,30.04,SSW,202,0.0,0.0,97,0.00,CLR,,0.00,WeatherDisplay:10.37,2013-09-06 02:47:00,
2013-09-05 22:52:00,73.4,72.5,30.04,WSW,248,0.0,0.0,97,0.00,CLR,,0.00,WeatherDisplay:10.37,2013-09-06 02:52:00,
2013-09-05 22:57:00,73.2,72.3,30.04,SSW,202,0.0,0.0,97,0.00,CLR,,0.00,WeatherDisplay:10.37,2013-09-06 02:57:00,
2013-09-05 23:02:00,73.0,72.1,30.05,South,180,0.0,0.0,97,0.00,CLR,,0.00,WeatherDisplay:10.37,2013-09-06 03:02:00,
2013-09-05 23:07:00,73.0,72.1,30.04,South,180,0.0,0.0,97,0.00,CLR,,0.00,WeatherDisplay:10.37,2013-09-06 03:07:00,
2013-09-05 23:12:00,73.0,72.4,30.04,WSW,248,0.0,0.0,98,0.00,CLR,,0.00,WeatherDisplay:10.37,2013-09-06 03:12:00,
2013-09-05 23:17:00,73.0,72.4,30.04,SSW,202,0.0,0.0,98,0.00,CLR,,0.00,WeatherDisplay:10.37,2013-09-06 03:17:00,
2013-09-05 23:22:00,72.9,72.3,30.05,SSW,202,0.0,0.0,98,0.00,CLR,,0.00,WeatherDisplay:10.37,2013-09-06 03:22:00,
2013-09-05 23:27:00,72.9,72.3,30.04,SSW,202,0.0,0.0,98,0.00,CLR,,0.00,WeatherDisplay:10.37,2013-09-06 03:27:00,
2013-09-05 23:32:00,72.7,72.1,30.05,South,180,0.0,0.0,98,0.00,CLR,,0.00,WeatherDisplay:10.37,2013-09-06 03:32:00,
2013-09-05 23:37:00,72.7,72.1,30.05,SSW,202,0.0,0.0,98,0.00,CLR,,0.00,WeatherDisplay:10.37,2013-09-06 03:37:00,
2013-09-05 23:42:00,72.5,71.9,30.04,South,180,0.0,0.0,98,0.00,CLR,,0.00,WeatherDisplay:10.37,2013-09-06 03:42:00,
2013-09-05 23:47:00,72.5,71.9,30.04,South,180,0.0,0.0,98,0.00,CLR,,0.00,WeatherDisplay:10.37,2013-09-06 03:47:00,
2013-09-05 23:52:00,72.5,71.9,30.05,WSW,248,0.0,0.0,98,0.00,CLR,,0.00,WeatherDisplay:10.37,2013-09-06 03:52:00,
2013-09-05 23:57:00,72.5,71.9,30.05,South,180,0.0,0.0,98,0.00,CLR,,0.00,WeatherDisplay:10.37,2013-09-06 03:57:00,